Details From LIRN - Naples Capodichino
To LIBD - Bari Palese Macchie
Flight Number -
Tags Routegen Generated
Created
Modified
Stats Distance 113 nm / 209 km
Max Altitude 0 ft / 0 m
Waypoints 2
Social Downloads 8
Likes 0
Share VATSIM

Download

Looking for another format? Having issues loading an existing format? Contact us
Advertisement - Login to hide

Notes

Generated

Route

LIRN LIBD

ID Type Via Altitude (ft/m) Position (lat/lon) Dist (leg/tot) Name
O LIRN APT - 0 / 0 40.87979 / 14.27754 - / 0 nm
O LIBD APT - 0 / 0 41.13463 / 16.74687 112 / 112 nm

Altitude Profile

Advertisement - Login to hide

LIRN

Details ICAO LIRN (NAP)
Name Naples Capodichino
Region Italy
Timezone Europe/Rome (UTC+2.0)
Stats Elevation 293 ft / 89 m (AMSL)
Location 40.886000° 14.290800°
Runways 1
Magnetic Variation 3.471° E

METAR

LIRN 182050Z VRB02KT CAVOK 24/18 Q1014 NOSIG

Decode

TAF

TAF LIRN 181700Z 1818/1918 VRB04KT 9999 FEW030 BECMG 1908/1910 22012KT

Decode

Departure Runways

ID Width Length Bearing (true/mag) Surface Threshold Overrun Markings Lighting
06 148 ft / 45 m 8,608 ft / 2,624 m 58.05° / 54.58° ASPHALT 1,299 ft / 396 m 0 ft / 0 m PREC-APP CENTERLINE EDGE THRESHOLD MALSF
24 148 ft / 45 m 8,608 ft / 2,624 m 238.07° / 234.60° ASPHALT 604 ft / 184 m 0 ft / 0 m PREC-APP CENTERLINE EDGE THRESHOLD MALSF

LIBD

Details ICAO LIBD (BRI)
Name Bari Karol Wojtyla
Region Italy
Timezone Europe/Rome (UTC+2.0)
Stats Elevation 174 ft / 53 m (AMSL)
Location 41.137900° 16.758300°
Runways 1
Magnetic Variation 3.900° E

METAR

LIBD 182050Z 23004KT CAVOK 21/15 Q1013

Decode

TAF

TAF LIBD 181700Z 1818/1918 06012KT CAVOK BECMG 1818/1820 VRB05KT BECMG 1908/1910 05012KT

Decode

Destination Runways

ID Width Length Bearing (true/mag) Surface Threshold Overrun Markings Lighting
07 148 ft / 45 m 9,260 ft / 2,823 m 69.39° / 65.49° ASPHALT 1,220 ft / 372 m 0 ft / 0 m PREC-APP CENTERLINE EDGE THRESHOLD ALSF-II REIL-OMNI
25 148 ft / 45 m 9,260 ft / 2,823 m 249.41° / 245.51° ASPHALT 0 ft / 0 m 0 ft / 0 m PREC-APP CENTERLINE EDGE THRESHOLD SALS REIL-OMNI

Approach Navaids

Runway Type Ident Frequency Range Bearing (true/mag) Slope Elevation
07 LOC-ILS BAP 111.35 MHz 18 nm / 33 km 69.39° / 65.49 ° - 175 ft / 53 m (AMSL)
07 OM OM - - 69.25° / 65.35 ° - 177 ft / 54 m (AMSL)
07 GS BAP 111.35 MHz 10 nm / 19 km 69.39° / 65.49 ° 3.32° 175 ft / 53 m (AMSL)
07 DME BAP 111.35 MHz 18 nm / 33 km - - 183 ft / 56 m (AMSL)

Popular Alternatives